createdAt,value
2019-01-14T00:00:20.740Z,37.63
2019-01-14T00:01:30.202Z,37.63
2019-01-14T00:02:39.375Z,37.73
2019-01-14T00:03:48.801Z,37.73
2019-01-14T00:04:58.186Z,37.73
2019-01-14T00:06:12.685Z,37.73
2019-01-14T00:07:21.621Z,37.73
2019-01-14T00:08:30.813Z,37.73
2019-01-14T00:09:40.600Z,37.73
2019-01-14T00:10:49.536Z,37.63
2019-01-14T00:11:58.980Z,37.63
2019-01-14T00:13:08.208Z,37.73
2019-01-14T00:14:17.149Z,37.73
2019-01-14T00:15:26.327Z,37.73
2019-01-14T00:16:35.289Z,37.63
2019-01-14T00:17:44.223Z,37.83
2019-01-14T00:18:53.672Z,37.73
2019-01-14T00:20:03.153Z,37.54
2019-01-14T00:21:12.584Z,37.71
2019-01-14T00:22:21.753Z,37.71
2019-01-14T00:23:30.700Z,37.71
2019-01-14T00:24:39.878Z,37.71
2019-01-14T00:25:48.803Z,37.71
2019-01-14T00:26:58.232Z,37.71
2019-01-14T00:28:07.681Z,37.71
2019-01-14T00:29:16.883Z,37.71
2019-01-14T00:30:26.087Z,37.91
2019-01-14T00:31:35.277Z,37.91
2019-01-14T00:32:44.459Z,37.62
2019-01-14T00:33:53.897Z,37.81
2019-01-14T00:35:03.592Z,37.91
2019-01-14T00:36:19.773Z,37.71
2019-01-14T00:37:28.706Z,37.81
2019-01-14T00:38:38.384Z,37.71
2019-01-14T00:39:47.837Z,37.81
2019-01-14T00:40:56.796Z,37.81
2019-01-14T00:42:05.478Z,37.62
2019-01-14T00:43:14.905Z,37.81
2019-01-14T00:44:23.825Z,38.01
2019-01-14T00:45:33.504Z,37.91
2019-01-14T00:46:42.939Z,38.01
2019-01-14T00:47:52.121Z,37.62
2019-01-14T00:49:01.798Z,37.62
2019-01-14T00:50:10.981Z,37.62
2019-01-14T00:51:20.159Z,37.71
2019-01-14T00:52:29.627Z,37.91
2019-01-14T00:53:39.097Z,37.71
2019-01-14T00:54:48.288Z,37.81
2019-01-14T00:55:57.507Z,37.71
2019-01-14T00:57:06.693Z,37.81
2019-01-14T00:58:16.129Z,37.81
2019-01-14T00:59:25.603Z,37.71
2019-01-14T01:00:35.062Z,37.91
2019-01-14T01:01:44.513Z,37.71
2019-01-14T01:02:53.942Z,37.71
2019-01-14T01:04:02.613Z,37.91
2019-01-14T01:05:11.827Z,37.81
2019-01-14T01:06:26.941Z,37.79
2019-01-14T01:07:36.396Z,37.89
2019-01-14T01:08:45.843Z,37.79
2019-01-14T01:09:54.761Z,37.79
2019-01-14T01:11:03.678Z,37.81
2019-01-14T01:12:12.382Z,37.79
2019-01-14T01:13:21.831Z,37.7
2019-01-14T01:14:30.523Z,37.89
2019-01-14T01:15:39.962Z,37.7
2019-01-14T01:16:49.174Z,37.91
2019-01-14T01:17:58.343Z,37.79
2019-01-14T01:19:07.776Z,37.79
2019-01-14T01:20:17.452Z,37.7
2019-01-14T01:21:26.878Z,37.41
2019-01-14T01:22:35.833Z,37.79
2019-01-14T01:23:45.257Z,37.7
2019-01-14T01:24:54.451Z,37.7
2019-01-14T01:26:03.654Z,37.79
2019-01-14T01:27:12.834Z,37.6
2019-01-14T01:28:22.771Z,37.6
2019-01-14T01:29:31.929Z,37.7
2019-01-14T01:30:41.731Z,37.6
2019-01-14T01:31:50.405Z,37.7
2019-01-14T01:32:59.834Z,37.7
2019-01-14T01:34:09.030Z,37.7
2019-01-14T01:35:18.210Z,37.7
2019-01-14T01:36:34.233Z,37.6
2019-01-14T01:37:43.421Z,37.6
2019-01-14T01:38:52.876Z,37.6
2019-01-14T01:40:02.315Z,37.5
2019-01-14T01:41:11.024Z,37.6
2019-01-14T01:42:20.203Z,37.7
2019-01-14T01:43:29.154Z,37.6
2019-01-14T01:44:38.582Z,37.6
2019-01-14T01:45:47.747Z,37.6
2019-01-14T01:46:56.686Z,37.5
2019-01-14T01:48:05.622Z,37.6
2019-01-14T01:49:14.803Z,37.5
2019-01-14T01:50:24.475Z,37.6
2019-01-14T01:51:33.670Z,37.41
2019-01-14T01:52:43.104Z,37.5
2019-01-14T01:53:52.270Z,37.41
2019-01-14T01:55:01.940Z,37.31
2019-01-14T01:56:10.863Z,37.6
2019-01-14T01:57:19.795Z,37.31
2019-01-14T01:58:29.490Z,37.41
2019-01-14T01:59:38.921Z,37.41
2019-01-14T02:00:48.099Z,37.31
2019-01-14T02:01:57.288Z,37.5
2019-01-14T02:03:06.467Z,37.21
2019-01-14T02:04:15.895Z,37.41
2019-01-14T02:05:25.100Z,37.19
2019-01-14T02:06:41.490Z,37.21
2019-01-14T02:07:51.169Z,37.39
2019-01-14T02:09:01.092Z,37.19
2019-01-14T02:10:10.266Z,37.29
2019-01-14T02:11:19.217Z,37.29
2019-01-14T02:12:27.916Z,37.21
2019-01-14T02:13:37.596Z,37.31
2019-01-14T02:14:46.585Z,37.29
2019-01-14T02:15:56.016Z,37.29
2019-01-14T02:17:05.440Z,37.39
2019-01-14T02:18:14.876Z,37.39
2019-01-14T02:19:24.058Z,37.29
2019-01-14T02:20:33.524Z,37.29
2019-01-14T02:21:42.457Z,37.29
2019-01-14T02:22:51.883Z,37.19
2019-01-14T02:24:01.322Z,37.29
2019-01-14T02:25:10.505Z,37.19
2019-01-14T02:26:19.433Z,37.19
2019-01-14T02:27:28.371Z,37.19
2019-01-14T02:28:37.554Z,37.19
2019-01-14T02:29:46.727Z,37.19
2019-01-14T02:30:56.284Z,37.19
2019-01-14T02:32:05.712Z,37.29
2019-01-14T02:33:15.651Z,37.1
2019-01-14T02:34:24.585Z,37.19
2019-01-14T02:35:34.252Z,37.19
2019-01-14T02:36:50.895Z,37.19
2019-01-14T02:38:00.079Z,37.19
2019-01-14T02:39:09.011Z,37.19
2019-01-14T02:40:18.695Z,37.19
2019-01-14T02:41:28.395Z,37.19
2019-01-14T02:42:37.832Z,37.01
2019-01-14T02:43:47.749Z,37.39
2019-01-14T02:44:57.421Z,37.1
2019-01-14T02:46:07.100Z,37.01
2019-01-14T02:47:16.526Z,37.01
2019-01-14T02:48:26.028Z,37.1
2019-01-14T02:49:35.196Z,37.01
2019-01-14T02:50:44.702Z,37.01
2019-01-14T02:51:53.663Z,36.91
2019-01-14T02:53:03.381Z,36.81
2019-01-14T02:54:12.618Z,36.91
2019-01-14T02:55:22.338Z,36.81
2019-01-14T02:56:31.528Z,36.91
2019-01-14T02:57:40.958Z,37.01
2019-01-14T02:58:50.424Z,37.01
2019-01-14T02:59:59.612Z,36.81
2019-01-14T03:01:08.819Z,37.01
2019-01-14T03:02:18.512Z,37.01
2019-01-14T03:03:28.193Z,37.19
2019-01-14T03:04:37.114Z,37.1
2019-01-14T03:05:46.816Z,37.19
2019-01-14T03:07:00.359Z,37.19
2019-01-14T03:08:09.076Z,37.19
2019-01-14T03:09:18.504Z,37.1
2019-01-14T03:10:27.957Z,37.19
2019-01-14T03:11:37.430Z,37.1
2019-01-14T03:12:46.618Z,37.1
2019-01-14T03:13:55.831Z,37.1
2019-01-14T03:15:05.524Z,37.19
2019-01-14T03:16:14.736Z,37.29
2019-01-14T03:17:23.909Z,37.1
2019-01-14T03:18:33.107Z,37.19
2019-01-14T03:19:42.027Z,37.19
2019-01-14T03:20:51.711Z,37.19
2019-01-14T03:22:00.887Z,37.1
2019-01-14T03:23:10.597Z,37.1
2019-01-14T03:24:20.301Z,37.1
2019-01-14T03:25:29.991Z,37.29
2019-01-14T03:26:39.715Z,37.19
2019-01-14T03:27:48.653Z,37.1
2019-01-14T03:28:58.588Z,36.91
2019-01-14T03:30:08.320Z,37.1
2019-01-14T03:31:18.216Z,37.19
2019-01-14T03:32:27.974Z,37.1
2019-01-14T03:33:37.727Z,37.1
2019-01-14T03:34:46.670Z,37.1
2019-01-14T03:35:55.605Z,37.1
2019-01-14T03:37:08.144Z,36.91
2019-01-14T03:38:17.343Z,37.1
2019-01-14T03:39:26.779Z,37.18
2019-01-14T03:40:36.472Z,37.27
2019-01-14T03:41:45.940Z,36.99
2019-01-14T03:42:55.376Z,37.1
2019-01-14T03:44:04.554Z,37.19
2019-01-14T03:45:13.487Z,37.18
2019-01-14T03:46:22.177Z,37.01
2019-01-14T03:47:31.369Z,36.81
2019-01-14T03:48:40.798Z,37.1
2019-01-14T03:49:49.980Z,37.1
2019-01-14T03:50:59.171Z,37.08
2019-01-14T03:52:08.365Z,36.99
2019-01-14T03:53:17.818Z,36.81
2019-01-14T03:54:26.761Z,36.99
2019-01-14T03:55:36.455Z,36.99
2019-01-14T03:56:45.915Z,37.18
2019-01-14T03:57:55.596Z,36.79
2019-01-14T03:59:04.556Z,36.89
2019-01-14T04:00:14.240Z,36.89
2019-01-14T04:01:23.437Z,36.79
2019-01-14T04:02:32.380Z,36.99
2019-01-14T04:03:41.806Z,36.89
2019-01-14T04:04:51.236Z,37.18
2019-01-14T04:06:00.656Z,37.18
2019-01-14T04:07:16.141Z,36.89
2019-01-14T04:08:25.857Z,36.99
2019-01-14T04:09:35.309Z,36.89
2019-01-14T04:10:44.741Z,36.99
2019-01-14T04:11:54.689Z,36.99
2019-01-14T04:13:03.879Z,36.89
2019-01-14T04:14:13.568Z,36.99
2019-01-14T04:15:23.024Z,36.99
2019-01-14T04:16:32.470Z,36.89
2019-01-14T04:17:41.670Z,36.79
2019-01-14T04:18:51.360Z,36.99
2019-01-14T04:20:00.802Z,36.79
2019-01-14T04:21:10.722Z,36.89
2019-01-14T04:22:20.656Z,36.99
2019-01-14T04:23:30.355Z,36.99
2019-01-14T04:24:39.798Z,36.99
2019-01-14T04:25:49.488Z,36.99
2019-01-14T04:26:58.921Z,36.89
2019-01-14T04:28:08.621Z,36.79
2019-01-14T04:29:18.307Z,36.79
2019-01-14T04:30:27.527Z,37.08
2019-01-14T04:31:36.994Z,36.99
2019-01-14T04:32:46.459Z,36.99
2019-01-14T04:33:55.650Z,36.89
2019-01-14T04:35:04.576Z,36.89
2019-01-14T04:36:14.052Z,36.99
2019-01-14T04:37:24.253Z,37.08
2019-01-14T04:38:33.445Z,37.08
2019-01-14T04:39:42.871Z,36.99
2019-01-14T04:40:52.580Z,36.89
2019-01-14T04:42:01.753Z,36.99
2019-01-14T04:43:10.952Z,36.99
2019-01-14T04:44:20.132Z,37.08
2019-01-14T04:45:30.064Z,36.99
2019-01-14T04:46:39.337Z,36.89
2019-01-14T04:47:48.533Z,36.89
2019-01-14T04:48:57.708Z,37.08
2019-01-14T04:50:07.246Z,37.08
2019-01-14T04:51:16.693Z,36.99
2019-01-14T04:52:25.635Z,36.99
2019-01-14T04:53:35.357Z,37.08
2019-01-14T04:54:44.289Z,37.08
2019-01-14T04:55:53.758Z,37.08
2019-01-14T04:57:03.428Z,36.99
2019-01-14T04:58:13.103Z,37.08
2019-01-14T04:59:22.793Z,36.99
2019-01-14T05:00:32.267Z,37.08
2019-01-14T05:01:41.788Z,37.08
2019-01-14T05:02:51.223Z,36.89
2019-01-14T05:04:00.888Z,36.99
2019-01-14T05:05:10.407Z,36.99
2019-01-14T05:06:19.400Z,36.99
2019-01-14T05:07:32.297Z,36.89
2019-01-14T05:08:41.720Z,37.08
2019-01-14T05:09:50.904Z,37.08
2019-01-14T05:11:00.588Z,36.99
2019-01-14T05:12:10.061Z,36.99
2019-01-14T05:13:19.297Z,36.89
2019-01-14T05:14:28.734Z,36.89
2019-01-14T05:15:39.573Z,36.99
2019-01-14T05:16:49.030Z,36.99
2019-01-14T05:17:58.496Z,36.99
2019-01-14T05:19:07.713Z,36.89
2019-01-14T05:20:17.166Z,36.99
2019-01-14T05:21:26.855Z,36.89
2019-01-14T05:22:36.525Z,36.89
2019-01-14T05:23:45.702Z,36.97
2019-01-14T05:24:54.728Z,36.99
2019-01-14T05:26:04.449Z,36.89
2019-01-14T05:27:14.148Z,36.89
2019-01-14T05:28:23.585Z,36.99
2019-01-14T05:29:32.793Z,36.97
2019-01-14T05:30:42.471Z,36.89
2019-01-14T05:31:52.173Z,36.69
2019-01-14T05:33:01.362Z,36.99
2019-01-14T05:34:10.879Z,36.89
2019-01-14T05:35:20.564Z,36.89
2019-01-14T05:36:30.005Z,36.79
2019-01-14T05:37:40.539Z,36.77
2019-01-14T05:38:49.486Z,36.89
2019-01-14T05:39:59.179Z,36.79
2019-01-14T05:41:08.861Z,36.77
2019-01-14T05:42:18.293Z,36.79
2019-01-14T05:43:27.862Z,36.87
2019-01-14T05:44:37.295Z,36.77
2019-01-14T05:45:46.711Z,36.68
2019-01-14T05:46:55.655Z,36.68
2019-01-14T05:48:05.361Z,36.68
2019-01-14T05:49:14.795Z,36.77
2019-01-14T05:50:24.235Z,36.58
2019-01-14T05:51:33.412Z,36.49
2019-01-14T05:52:42.840Z,36.68
2019-01-14T05:53:53.231Z,36.77
2019-01-14T05:55:02.656Z,36.68
2019-01-14T05:56:12.085Z,36.58
2019-01-14T05:57:21.283Z,36.49
2019-01-14T05:58:30.466Z,36.49
2019-01-14T05:59:39.642Z,36.87
2019-01-14T06:00:48.816Z,36.77
2019-01-14T06:01:57.998Z,36.77
2019-01-14T06:03:07.426Z,36.49
2019-01-14T06:04:16.859Z,36.58
2019-01-14T06:05:25.544Z,36.58
2019-01-14T06:06:34.996Z,36.77
2019-01-14T06:07:47.301Z,36.68
2019-01-14T06:08:56.483Z,36.6
2019-01-14T06:10:05.408Z,36.77
2019-01-14T06:11:14.098Z,36.58
2019-01-14T06:12:24.056Z,36.77
2019-01-14T06:13:33.733Z,36.58
2019-01-14T06:14:42.967Z,36.58
2019-01-14T06:15:52.915Z,36.68
2019-01-14T06:17:02.378Z,36.58
2019-01-14T06:18:11.804Z,36.68
2019-01-14T06:19:21.236Z,36.58
2019-01-14T06:20:30.435Z,36.68
2019-01-14T06:21:39.345Z,36.77
2019-01-14T06:22:49.399Z,36.87
2019-01-14T06:23:58.337Z,36.58
2019-01-14T06:25:07.796Z,36.49
2019-01-14T06:26:17.231Z,36.77
2019-01-14T06:27:26.661Z,36.77
2019-01-14T06:28:35.844Z,36.77
2019-01-14T06:29:45.057Z,36.77
2019-01-14T06:30:54.240Z,36.77
2019-01-14T06:32:03.414Z,36.68
2019-01-14T06:33:13.137Z,36.77
2019-01-14T06:34:22.566Z,36.77
2019-01-14T06:35:32.242Z,36.68
2019-01-14T06:36:41.676Z,36.68
2019-01-14T06:37:54.835Z,36.77
2019-01-14T06:39:03.773Z,36.77
2019-01-14T06:40:13.193Z,36.58
2019-01-14T06:41:22.380Z,36.58
2019-01-14T06:42:31.308Z,36.68
2019-01-14T06:43:40.497Z,36.58
2019-01-14T06:44:49.714Z,36.58
2019-01-14T06:45:59.141Z,36.68
2019-01-14T06:47:08.823Z,36.49
2019-01-14T06:48:18.003Z,36.58
2019-01-14T06:49:27.171Z,36.58
2019-01-14T06:50:36.599Z,36.49
2019-01-14T06:51:45.533Z,36.58
2019-01-14T06:52:54.975Z,36.58
2019-01-14T06:54:03.906Z,36.49
2019-01-14T06:55:13.110Z,36.58
2019-01-14T06:56:23.089Z,36.58
2019-01-14T06:57:33.070Z,36.49
2019-01-14T06:58:42.800Z,36.58
2019-01-14T06:59:52.502Z,36.58
2019-01-14T07:01:01.965Z,36.58
2019-01-14T07:02:11.665Z,36.58
2019-01-14T07:03:21.111Z,36.58
2019-01-14T07:04:30.571Z,36.58
2019-01-14T07:05:40.014Z,36.58
2019-01-14T07:06:49.697Z,36.58
2019-01-14T07:08:02.307Z,36.68
2019-01-14T07:09:11.520Z,36.49
2019-01-14T07:10:21.203Z,36.58
2019-01-14T07:11:30.636Z,36.68
2019-01-14T07:12:40.069Z,36.68
2019-01-14T07:13:49.508Z,36.58
2019-01-14T07:14:59.167Z,36.58
2019-01-14T07:16:08.355Z,36.58
2019-01-14T07:17:17.791Z,36.58
2019-01-14T07:18:27.475Z,36.58
2019-01-14T07:19:36.427Z,36.49
2019-01-14T07:20:45.463Z,36.58
2019-01-14T07:21:55.210Z,36.68
2019-01-14T07:23:04.658Z,36.39
2019-01-14T07:24:15.951Z,36.39
2019-01-14T07:25:25.126Z,36.39
2019-01-14T07:26:34.595Z,36.49
2019-01-14T07:27:44.045Z,36.39
2019-01-14T07:28:52.983Z,36.49
2019-01-14T07:30:02.167Z,36.49
2019-01-14T07:31:12.133Z,36.29
2019-01-14T07:32:21.573Z,36.39
2019-01-14T07:33:31.020Z,36.39
2019-01-14T07:34:40.213Z,36.49
2019-01-14T07:35:49.937Z,36.39
2019-01-14T07:36:59.133Z,36.39
2019-01-14T07:38:09.248Z,36.29
2019-01-14T07:39:18.685Z,36.29
2019-01-14T07:40:28.120Z,36.39
2019-01-14T07:41:37.550Z,36.39
2019-01-14T07:42:46.767Z,36.29
2019-01-14T07:43:56.444Z,36.39
2019-01-14T07:45:05.894Z,36.39
2019-01-14T07:46:14.867Z,36.29
2019-01-14T07:47:23.805Z,36.29
2019-01-14T07:48:32.738Z,36.39
2019-01-14T07:49:42.452Z,36.39
2019-01-14T07:50:51.622Z,36.19
2019-01-14T07:52:00.555Z,36.29
2019-01-14T07:53:09.743Z,36.39
2019-01-14T07:54:19.175Z,36.39
2019-01-14T07:55:28.617Z,36.39
2019-01-14T07:56:38.055Z,36.49
2019-01-14T07:57:46.750Z,36.49
2019-01-14T07:58:56.711Z,36.58
2019-01-14T08:00:05.654Z,36.58
2019-01-14T08:01:15.339Z,36.58
2019-01-14T08:02:24.762Z,36.68
2019-01-14T08:03:34.256Z,36.68
2019-01-14T08:04:43.933Z,36.49
2019-01-14T08:05:53.354Z,36.68
2019-01-14T08:07:02.278Z,36.68
2019-01-14T08:08:16.531Z,36.58
2019-01-14T08:09:25.701Z,36.49
2019-01-14T08:10:34.389Z,36.39
2019-01-14T08:11:43.612Z,36.39
2019-01-14T08:12:53.041Z,36.29
2019-01-14T08:14:03.222Z,36.19
2019-01-14T08:15:12.663Z,36
2019-01-14T08:16:22.368Z,35.93
2019-01-14T08:17:31.532Z,35.83
2019-01-14T08:18:40.468Z,35.64
2019-01-14T08:19:50.166Z,35.35
2019-01-14T08:20:59.601Z,35.44
2019-01-14T08:22:08.544Z,35.25
2019-01-14T08:23:17.705Z,35.16
2019-01-14T08:24:26.638Z,35.17
2019-01-14T08:25:37.487Z,35.08
2019-01-14T08:26:47.010Z,34.98
2019-01-14T08:27:56.725Z,35.17
2019-01-14T08:29:05.411Z,35.17
2019-01-14T08:30:14.360Z,34.88
2019-01-14T08:31:23.307Z,35.08
2019-01-14T08:32:32.754Z,34.98
2019-01-14T08:33:41.680Z,35.08
2019-01-14T08:34:51.121Z,34.98
2019-01-14T08:36:00.563Z,34.98
2019-01-14T08:37:10.936Z,35.17
2019-01-14T08:38:23.793Z,35.08
2019-01-14T08:39:33.234Z,35.27
2019-01-14T08:40:42.199Z,34.69
2019-01-14T08:41:51.631Z,34.78
2019-01-14T08:43:00.832Z,34.7
2019-01-14T08:44:09.775Z,34.42
2019-01-14T08:45:18.968Z,34.52
2019-01-14T08:46:28.419Z,34.61
2019-01-14T08:47:37.618Z,34.22
2019-01-14T08:48:51.266Z,34.52
2019-01-14T08:50:00.473Z,34.32
2019-01-14T08:51:09.922Z,34.32
2019-01-14T08:52:19.598Z,34.13
2019-01-14T08:53:29.028Z,34.52
2019-01-14T08:54:38.959Z,34.24
2019-01-14T08:55:48.407Z,34.24
2019-01-14T08:56:57.830Z,34.24
2019-01-14T08:58:07.022Z,34.34
2019-01-14T08:59:16.739Z,33.95
2019-01-14T09:00:26.670Z,34.05
2019-01-14T09:01:35.877Z,34.05
2019-01-14T09:02:45.080Z,34.14
2019-01-14T09:03:54.651Z,34.14
2019-01-14T09:05:04.123Z,34.05
2019-01-14T09:06:13.560Z,34.16
2019-01-14T09:07:23.256Z,34.06
2019-01-14T09:08:32.937Z,34.06
2019-01-14T09:09:42.388Z,34.06
2019-01-14T09:10:51.827Z,34.16
2019-01-14T09:12:01.263Z,34.06
2019-01-14T09:13:10.701Z,34.06
2019-01-14T09:14:19.650Z,34.06
2019-01-14T09:15:29.111Z,34.06
2019-01-14T09:16:38.051Z,33.97
2019-01-14T09:17:47.746Z,34.45
2019-01-14T09:18:56.990Z,34.36
2019-01-14T09:20:06.168Z,34.36
2019-01-14T09:21:15.624Z,34.44
2019-01-14T09:22:25.078Z,34.34
2019-01-14T09:23:34.518Z,34.26
2019-01-14T09:24:43.762Z,34.24
2019-01-14T09:25:56.210Z,34.24
2019-01-14T09:27:05.446Z,34.53
2019-01-14T09:28:14.624Z,34.44
2019-01-14T09:29:23.563Z,34.44
2019-01-14T09:30:33.228Z,34.53
2019-01-14T09:31:42.414Z,34.44
2019-01-14T09:32:51.884Z,34.24
2019-01-14T09:34:01.092Z,34.24
2019-01-14T09:35:10.297Z,34.34
2019-01-14T09:36:19.726Z,34.63
2019-01-14T09:37:29.402Z,34.24
2019-01-14T09:38:38.607Z,34.44
2019-01-14T09:39:47.571Z,34.53
2019-01-14T09:40:57.006Z,35.11
2019-01-14T09:42:06.731Z,34.53
2019-01-14T09:43:15.654Z,34.53
2019-01-14T09:44:24.586Z,34.53
2019-01-14T09:45:34.044Z,34.53
2019-01-14T09:46:43.478Z,34.63
2019-01-14T09:47:53.177Z,34.53
2019-01-14T09:49:02.616Z,34.72
2019-01-14T09:50:12.061Z,34.8
2019-01-14T09:51:21.266Z,34.82
2019-01-14T09:52:30.750Z,35.21
2019-01-14T09:53:39.938Z,35.28
2019-01-14T09:54:49.114Z,35.1
2019-01-14T09:55:58.304Z,35.28
2019-01-14T09:57:07.560Z,35.1
2019-01-14T09:58:16.744Z,35.1
2019-01-14T09:59:26.169Z,35
2019-01-14T10:00:35.395Z,35.1
2019-01-14T10:01:44.610Z,35.19
2019-01-14T10:02:58.050Z,35.1
2019-01-14T10:04:06.995Z,35
2019-01-14T10:05:15.948Z,35.19
2019-01-14T10:06:25.650Z,35.1
2019-01-14T10:07:35.106Z,35.19
2019-01-14T10:08:45.667Z,35.19
2019-01-14T10:09:54.635Z,35.1
2019-01-14T10:11:04.387Z,35.1
2019-01-14T10:12:13.594Z,35.19
2019-01-14T10:13:23.294Z,35.1
2019-01-14T10:14:32.242Z,35.19
2019-01-14T10:15:41.421Z,35.1
2019-01-14T10:16:50.842Z,35.19
2019-01-14T10:18:00.270Z,35.1
2019-01-14T10:19:10.279Z,35.28
2019-01-14T10:20:19.462Z,35.19
2019-01-14T10:21:28.930Z,35.19
2019-01-14T10:22:38.738Z,35.19
2019-01-14T10:23:48.195Z,35.19
2019-01-14T10:24:57.898Z,35.19
2019-01-14T10:26:07.595Z,35.19
2019-01-14T10:27:16.768Z,35.19
2019-01-14T10:28:25.737Z,35
2019-01-14T10:29:35.193Z,35.1
2019-01-14T10:30:44.368Z,35.1
2019-01-14T10:31:53.812Z,35.19
2019-01-14T10:33:03.017Z,35.19
2019-01-14T10:34:12.209Z,35.17
2019-01-14T10:35:21.666Z,35.1
2019-01-14T10:36:30.877Z,35.19
2019-01-14T10:37:40.321Z,35.28
2019-01-14T10:38:52.970Z,35.1
2019-01-14T10:40:01.916Z,35
2019-01-14T10:41:11.356Z,35.19
2019-01-14T10:42:20.536Z,35.19
2019-01-14T10:43:29.709Z,35.1
2019-01-14T10:44:39.148Z,35.1
2019-01-14T10:45:47.846Z,35
2019-01-14T10:46:57.295Z,35.19
2019-01-14T10:48:07.014Z,35.1
2019-01-14T10:49:15.947Z,34.7
2019-01-14T10:50:25.610Z,34.8
2019-01-14T10:51:34.555Z,34.53
2019-01-14T10:52:43.748Z,34.72
2019-01-14T10:53:53.208Z,34.44
2019-01-14T10:55:03.135Z,34.44
2019-01-14T10:56:19.301Z,34.44
2019-01-14T10:57:28.732Z,35.11
2019-01-14T10:58:38.015Z,35.11
2019-01-14T10:59:47.460Z,34.53
2019-01-14T11:00:56.387Z,34.24
2019-01-14T11:02:05.819Z,34.24
2019-01-14T11:03:14.513Z,34.24
2019-01-14T11:04:23.445Z,34.24
2019-01-14T11:05:32.649Z,34.24
2019-01-14T11:06:42.457Z,34.24
2019-01-14T11:07:51.894Z,34.24
2019-01-14T11:09:08.314Z,34.34
2019-01-14T11:10:17.659Z,34.53
2019-01-14T11:11:26.601Z,35.11
2019-01-14T11:12:36.291Z,34.34
2019-01-14T11:13:45.756Z,34.53
2019-01-14T11:14:55.203Z,34.34
2019-01-14T11:16:07.953Z,34.53
2019-01-14T11:17:17.394Z,35.02
2019-01-14T11:18:26.593Z,35.02
2019-01-14T11:19:35.786Z,34.44
2019-01-14T11:20:44.992Z,34.34
2019-01-14T11:21:54.453Z,34.53
2019-01-14T11:23:03.440Z,34.44
2019-01-14T11:24:12.640Z,35.02
2019-01-14T11:25:21.346Z,34.63
2019-01-14T11:26:30.305Z,34.44
2019-01-14T11:27:38.981Z,34.82
2019-01-14T11:28:48.420Z,34.72
2019-01-14T11:29:57.632Z,34.82
2019-01-14T11:31:06.305Z,35.3
2019-01-14T11:32:15.258Z,35.3
2019-01-14T11:33:24.959Z,35.21
2019-01-14T11:34:34.397Z,35.11
2019-01-14T11:35:43.822Z,35.3
2019-01-14T11:36:52.760Z,35.3
2019-01-14T11:38:02.470Z,35.21
2019-01-14T11:39:12.412Z,35.1
2019-01-14T11:40:21.103Z,35
2019-01-14T11:41:30.065Z,35
2019-01-14T11:42:38.996Z,35.19
2019-01-14T11:43:48.186Z,35.1
2019-01-14T11:44:57.383Z,35
2019-01-14T11:46:06.081Z,35.1
2019-01-14T11:47:15.272Z,34.9
2019-01-14T11:48:24.723Z,35
2019-01-14T11:49:33.675Z,35.19
2019-01-14T11:50:42.623Z,35.28
2019-01-14T11:51:51.816Z,35.1
2019-01-14T11:53:00.757Z,35.1
2019-01-14T11:54:09.771Z,35.1
2019-01-14T11:55:19.235Z,35.19
2019-01-14T11:56:28.436Z,35.1
2019-01-14T11:57:37.399Z,35.1
2019-01-14T11:58:46.325Z,35.28
2019-01-14T11:59:55.515Z,35.19
2019-01-14T12:01:04.950Z,35.28
2019-01-14T12:02:14.397Z,35.28
2019-01-14T12:03:23.334Z,35.28
2019-01-14T12:04:32.521Z,35.19
2019-01-14T12:05:41.992Z,35.28
2019-01-14T12:06:51.188Z,35.19
2019-01-14T12:08:00.124Z,35.19
2019-01-14T12:09:14.752Z,35.19
2019-01-14T12:10:23.939Z,35.19
2019-01-14T12:11:33.657Z,35.1
2019-01-14T12:12:42.603Z,35.1
2019-01-14T12:13:51.546Z,35.1
2019-01-14T12:15:00.731Z,35.19
2019-01-14T12:16:09.948Z,35.19
2019-01-14T12:17:19.887Z,35.38
2019-01-14T12:18:28.822Z,35.1
2019-01-14T12:19:38.557Z,35.19
2019-01-14T12:20:47.764Z,35.19
2019-01-14T12:21:57.217Z,35.19
2019-01-14T12:23:06.194Z,35.19
2019-01-14T12:24:15.140Z,35.19
2019-01-14T12:25:24.587Z,35.19
2019-01-14T12:26:34.068Z,35.19
2019-01-14T12:27:43.512Z,35.19
2019-01-14T12:28:52.448Z,35
2019-01-14T12:30:01.683Z,35
2019-01-14T12:31:10.880Z,35
2019-01-14T12:32:20.132Z,35.19
2019-01-14T12:33:29.309Z,35.19
2019-01-14T12:34:38.499Z,34.8
2019-01-14T12:35:47.957Z,34.53
2019-01-14T12:36:56.947Z,34.63
2019-01-14T12:38:06.370Z,34.53
2019-01-14T12:39:22.105Z,34.34
2019-01-14T12:40:31.563Z,34.92
2019-01-14T12:41:40.771Z,34.44
2019-01-14T12:42:56.067Z,34.53
2019-01-14T12:44:06.002Z,34.34
2019-01-14T12:45:15.433Z,34.14
2019-01-14T12:46:24.609Z,34.34
2019-01-14T12:47:33.813Z,34.72
2019-01-14T12:48:43.020Z,34.34
2019-01-14T12:49:52.462Z,34.72
2019-01-14T12:51:02.423Z,34.44
2019-01-14T12:52:12.102Z,34.34
2019-01-14T12:53:21.526Z,34.34
2019-01-14T12:54:30.958Z,34.44
2019-01-14T12:55:39.938Z,34.72
2019-01-14T12:56:49.145Z,34.34
2019-01-14T12:57:58.587Z,34.34
2019-01-14T12:59:07.766Z,34.24
2019-01-14T13:00:17.194Z,34.34
2019-01-14T13:01:26.630Z,35.11
2019-01-14T13:02:36.056Z,34.53
2019-01-14T13:03:44.992Z,35.11
2019-01-14T13:04:54.690Z,35.11
2019-01-14T13:06:03.735Z,35.11
2019-01-14T13:07:12.932Z,34.53
2019-01-14T13:08:22.124Z,34.34
2019-01-14T13:09:31.346Z,34.44
2019-01-14T13:10:41.189Z,34.44
2019-01-14T13:11:50.177Z,34.63
2019-01-14T13:12:59.143Z,34.63
2019-01-14T13:14:08.585Z,34.53
2019-01-14T13:15:17.797Z,34.53
2019-01-14T13:16:27.790Z,34.63
2019-01-14T13:17:36.744Z,34.72
2019-01-14T13:18:45.693Z,34.92
2019-01-14T13:19:54.647Z,34.82
2019-01-14T13:21:04.318Z,34.72
2019-01-14T13:22:14.003Z,34.92
2019-01-14T13:23:23.439Z,35.21
2019-01-14T13:24:36.805Z,35.21
2019-01-14T13:25:45.987Z,35.21
2019-01-14T13:26:55.674Z,35.11
2019-01-14T13:28:04.620Z,35.21
2019-01-14T13:29:18.168Z,35.11
2019-01-14T13:30:27.845Z,35.1
2019-01-14T13:31:36.779Z,35.1
2019-01-14T13:32:45.708Z,35.19
2019-01-14T13:33:54.633Z,35.1
2019-01-14T13:35:03.829Z,35.1
2019-01-14T13:36:12.769Z,35.1
2019-01-14T13:37:21.977Z,35.11
2019-01-14T13:38:30.919Z,35.1
2019-01-14T13:39:40.654Z,35.11
2019-01-14T13:40:56.259Z,34.9
2019-01-14T13:42:05.756Z,35.1
2019-01-14T13:43:15.185Z,35.19
2019-01-14T13:44:24.370Z,35.19
2019-01-14T13:45:33.819Z,35.19
2019-01-14T13:46:43.020Z,35.19
2019-01-14T13:47:52.226Z,35.19
2019-01-14T13:49:01.199Z,35.19
2019-01-14T13:50:09.952Z,35.19
2019-01-14T13:51:19.698Z,35.1
2019-01-14T13:52:28.750Z,35
2019-01-14T13:53:37.671Z,35
2019-01-14T13:54:46.374Z,35.19
2019-01-14T13:56:01.906Z,35.19
2019-01-14T13:57:10.600Z,35.28
2019-01-14T13:58:19.880Z,35.28
2019-01-14T13:59:29.329Z,35.19
2019-01-14T14:00:38.519Z,35.28
2019-01-14T14:01:47.949Z,35.19
2019-01-14T14:02:57.455Z,35.19
2019-01-14T14:04:06.403Z,35.19
2019-01-14T14:05:15.641Z,35.1
2019-01-14T14:06:24.602Z,35.19
2019-01-14T14:07:34.053Z,35.28
2019-01-14T14:08:42.786Z,35.19
2019-01-14T14:09:52.246Z,35.19
2019-01-14T14:11:01.685Z,35.19
2019-01-14T14:12:11.377Z,35
2019-01-14T14:13:21.065Z,35
2019-01-14T14:14:30.499Z,35.1
2019-01-14T14:15:39.680Z,35.1
2019-01-14T14:16:48.615Z,34.9
2019-01-14T14:17:59.143Z,35
2019-01-14T14:19:08.325Z,35.19
2019-01-14T14:20:17.262Z,35.1
2019-01-14T14:21:26.454Z,35.1
2019-01-14T14:22:35.391Z,35.19
2019-01-14T14:23:44.582Z,35.19
2019-01-14T14:24:53.769Z,35.28
2019-01-14T14:26:03.505Z,35.19
2019-01-14T14:27:12.950Z,35.28
2019-01-14T14:28:22.423Z,35.21
2019-01-14T14:29:31.925Z,35.19
2019-01-14T14:30:41.623Z,34.8
2019-01-14T14:31:50.827Z,34.82
2019-01-14T14:32:59.783Z,34.9
2019-01-14T14:34:09.715Z,34.82
2019-01-14T14:35:18.699Z,34.82
2019-01-14T14:36:28.388Z,34.72
2019-01-14T14:37:37.584Z,34.72
2019-01-14T14:38:46.781Z,34.82
2019-01-14T14:39:56.212Z,34.82
2019-01-14T14:41:05.406Z,34.92
2019-01-14T14:42:14.081Z,35.3
2019-01-14T14:43:23.524Z,34.92
2019-01-14T14:44:33.207Z,34.82
2019-01-14T14:45:42.400Z,35.21
2019-01-14T14:46:51.828Z,35.21
2019-01-14T14:48:01.299Z,35.19
2019-01-14T14:49:10.758Z,35.19
2019-01-14T14:50:19.950Z,35.1
2019-01-14T14:51:29.142Z,35.19
2019-01-14T14:52:38.326Z,35.21
2019-01-14T14:53:47.526Z,35.1
2019-01-14T14:54:56.933Z,35.19
2019-01-14T14:56:06.116Z,35.21
2019-01-14T14:57:15.584Z,35
2019-01-14T14:58:24.543Z,35
2019-01-14T14:59:33.288Z,34.9
2019-01-14T15:00:42.481Z,35.1
2019-01-14T15:01:51.928Z,35.1